Time;durP1;ratioP1;P1;durP2;ratioP2;P2;SDS_P1;SDS_P2;PMS_P1;PMS_P2;Temp;Humidity;BMP_temperature;BMP_pressure;BME280_temperature;BME280_humidity;BME280_pressure;Samples;Min_cycle;Max_cycle;Signal;HPM_P1;HPM_P2
2022/07/19 00:01:35;;;;;;;3.13;1.10;;;;;;;20.79;56.43;100506.94;5103445;28;20024;-67
2022/07/19 00:04:00;;;;;;;2.75;1.20;;;;;;;20.79;56.27;100509.66;5102332;28;20039;-68
2022/07/19 00:06:26;;;;;;;9.10;1.45;;;;;;;20.70;56.76;100494.75;5102759;28;20052;-67
2022/07/19 00:08:52;;;;;;;3.28;1.17;;;;;;;20.71;56.91;100507.16;5103256;28;20069;-67
2022/07/19 00:11:17;;;;;;;3.75;1.25;;;;;;;20.67;57.00;100511.31;5102447;28;20309;-67
2022/07/19 00:13:43;;;;;;;2.13;1.33;;;;;;;20.60;57.29;100503.25;5087927;28;20032;-67
2022/07/19 00:16:08;;;;;;;2.03;1.05;;;;;;;20.54;57.33;100504.09;5081699;28;20033;-67
2022/07/19 00:18:34;;;;;;;4.32;1.02;;;;;;;20.45;57.68;100508.03;5082222;28;20454;-67
2022/07/19 00:20:59;;;;;;;2.80;1.20;;;;;;;20.36;58.02;100515.44;5080999;28;20331;-67
2022/07/19 00:23:25;;;;;;;4.65;1.20;;;;;;;20.30;58.28;100513.59;5081550;28;20028;-67
2022/07/19 00:25:50;;;;;;;4.35;1.30;;;;;;;20.30;58.45;100510.91;5083676;28;20042;-67
2022/07/19 00:28:15;;;;;;;4.88;1.40;;;;;;;20.39;58.06;100508.84;5081637;28;20066;-67
2022/07/19 00:30:41;;;;;;;2.70;1.35;;;;;;;20.38;57.93;100501.78;5083100;28;20049;-67
2022/07/19 00:33:10;;;;;;;7.70;1.40;;;;;;;20.51;57.70;100506.38;5082673;28;20465;-67
2022/07/19 00:35:36;;;;;;;4.20;1.70;;;;;;;20.42;58.04;100510.31;5081966;28;20028;-67
2022/07/19 00:38:10;;;;;;;5.70;1.38;;;;;;;20.57;57.47;100508.22;5082308;28;20048;-67
2022/07/19 00:40:37;;;;;;;8.02;1.58;;;;;;;20.80;56.75;100508.59;5081118;28;20062;-67
2022/07/19 00:43:02;;;;;;;3.83;1.40;;;;;;;21.01;55.63;100510.25;5081667;28;20021;-67
2022/07/19 00:45:28;;;;;;;7.35;1.80;;;;;;;21.02;55.79;100504.66;5082644;28;20073;-67
2022/07/19 00:47:53;;;;;;;5.30;1.25;;;;;;;20.99;56.05;100507.75;5080891;28;20090;-67
2022/07/19 00:50:19;;;;;;;5.95;1.23;;;;;;;21.11;55.88;100507.94;5080920;28;20059;-67
2022/07/19 00:53:05;;;;;;;2.88;1.40;;;;;;;21.28;55.40;100500.25;5081730;28;20093;-68
2022/07/19 00:55:35;;;;;;;4.35;1.50;;;;;;;21.30;55.52;100500.84;5081873;28;20073;-67
2022/07/19 00:58:01;;;;;;;7.38;1.35;;;;;;;21.39;54.98;100499.56;5082001;28;20226;-68
2022/07/19 01:00:30;;;;;;;3.42;1.38;;;;;;;21.38;55.24;100502.47;5080788;28;20314;-67
2022/07/19 01:02:56;;;;;;;6.72;1.55;;;;;;;21.34;55.67;100496.69;5081958;28;20034;-67
2022/07/19 01:05:22;;;;;;;3.35;1.20;;;;;;;21.34;55.61;100491.31;5063970;28;20036;-67
2022/07/19 01:07:47;;;;;;;5.13;1.42;;;;;;;21.33;55.50;100486.94;5080845;28;20032;-67
2022/07/19 01:10:14;;;;;;;3.65;1.42;;;;;;;21.36;55.73;100491.91;5081277;28;20319;-67
2022/07/19 01:12:41;;;;;;;6.05;1.90;;;;;;;21.41;54.83;100488.56;5082635;28;20192;-67
2022/07/19 01:15:13;;;;;;;2.13;1.30;;;;;;;21.43;54.44;100486.50;5080947;28;20322;-67
2022/07/19 01:17:38;;;;;;;3.80;1.48;;;;;;;21.34;54.43;100491.31;5080890;28;20042;-67
2022/07/19 01:20:04;;;;;;;15.85;2.50;;;;;;;21.32;54.15;100486.13;5082308;28;20447;-68
2022/07/19 01:22:30;;;;;;;7.07;3.20;;;;;;;21.30;54.03;100477.44;5081276;28;20056;-67
2022/07/19 01:24:55;;;;;;;10.18;5.15;;;;;;;21.35;53.95;100477.63;5080520;28;20052;-67
2022/07/19 01:27:21;;;;;;;11.15;6.32;;;;;;;21.33;53.48;100449.25;5079885;28;20199;-67
2022/07/19 01:29:46;;;;;;;9.02;8.02;;;;;;;21.40;53.59;100470.75;5082593;28;20325;-67
2022/07/19 01:32:12;;;;;;;12.27;9.95;;;;;;;21.39;53.79;100485.28;5081062;28;20071;-68
2022/07/19 01:34:37;;;;;;;11.93;8.70;;;;;;;21.37;53.94;100480.09;5083066;28;20036;-67
2022/07/19 01:37:03;;;;;;;11.48;7.30;;;;;;;21.40;54.25;100482.34;5080886;28;20024;-67
2022/07/19 01:39:28;;;;;;;10.27;8.10;;;;;;;21.48;54.19;100482.13;5082787;28;20044;-67
2022/07/19 01:41:54;;;;;;;11.68;7.93;;;;;;;21.56;53.90;100487.25;5082071;28;20056;-67
2022/07/19 01:44:19;;;;;;;9.27;6.93;;;;;;;21.45;53.94;100469.06;5083244;28;20055;-68
2022/07/19 01:46:45;;;;;;;9.65;7.70;;;;;;;21.42;54.15;100485.66;5081048;28;20040;-67
2022/07/19 01:49:10;;;;;;;8.75;6.43;;;;;;;21.42;54.35;100482.97;5080636;28;20025;-68
2022/07/19 01:51:35;;;;;;;7.90;5.63;;;;;;;21.46;54.51;100484.19;5079881;28;20361;-68
2022/07/19 01:54:01;;;;;;;6.50;5.07;;;;;;;21.34;54.95;100486.75;5080908;28;20248;-67
2022/07/19 01:56:26;;;;;;;7.63;5.05;;;;;;;21.30;55.15;100487.38;5081851;28;20025;-67
2022/07/19 01:58:52;;;;;;;7.65;3.75;;;;;;;21.23;55.10;100487.41;5081219;28;20302;-67
2022/07/19 02:01:17;;;;;;;6.40;3.40;;;;;;;21.13;56.24;100489.69;5080419;28;20039;-67
2022/07/19 02:03:43;;;;;;;6.95;3.35;;;;;;;21.15;56.34;100500.25;5079742;28;20033;-67
2022/07/19 02:06:09;;;;;;;4.93;2.53;;;;;;;21.01;56.43;100486.84;5079100;28;20265;-67
2022/07/19 02:08:35;;;;;;;3.15;1.80;;;;;;;21.15;56.40;100501.09;5081780;28;20104;-67
2022/07/19 02:11:34;;;;;;;8.82;2.00;;;;;;;21.22;56.31;100501.06;5080681;28;20362;-67
2022/07/19 02:13:45;;;;;;;3.85;2.00;;;;;;;20.85;57.39;100500.75;5081409;28;20299;-67
2022/07/19 02:16:11;;;;;;;3.42;1.70;;;;;;;20.74;58.05;100501.38;5080366;28;20039;-67
2022/07/19 02:18:36;;;;;;;4.90;2.10;;;;;;;20.66;59.12;100498.91;5081853;28;20218;-67
2022/07/19 02:21:02;;;;;;;4.00;1.90;;;;;;;20.61;59.09;100499.53;5088914;28;20337;-67
2022/07/19 02:23:27;;;;;;;7.50;2.00;;;;;;;20.79;59.36;100498.03;5093031;28;20036;-67
2022/07/19 02:25:52;;;;;;;15.07;2.63;;;;;;;20.85;59.29;100500.75;5099584;28;20048;-67
2022/07/19 02:28:18;;;;;;;8.05;2.20;;;;;;;20.87;59.41;100503.25;5095125;28;20039;-67
2022/07/19 02:30:43;;;;;;;8.20;2.10;;;;;;;20.88;59.18;100504.91;5093831;28;20030;-68
2022/07/19 02:33:09;;;;;;;6.70;2.70;;;;;;;20.97;59.49;100509.00;5090286;28;20036;-67
2022/07/19 02:35:34;;;;;;;4.45;2.33;;;;;;;21.01;59.64;100512.94;5085556;28;20307;-67
2022/07/19 02:38:00;;;;;;;7.13;2.65;;;;;;;21.06;59.21;100509.59;5085560;28;20356;-68
2022/07/19 02:40:25;;;;;;;9.07;2.33;;;;;;;21.05;58.51;100503.41;5098600;28;20031;-67
2022/07/19 02:42:50;;;;;;;3.45;2.30;;;;;;;21.04;57.82;100510.66;5085504;28;20277;-67
2022/07/19 02:45:16;;;;;;;6.50;2.40;;;;;;;21.02;57.69;100507.34;5084795;28;20028;-68
2022/07/19 02:47:42;;;;;;;9.38;2.20;;;;;;;21.12;57.62;100514.16;5082566;28;20036;-67
2022/07/19 02:50:08;;;;;;;4.40;2.05;;;;;;;21.07;57.83;100503.19;5090310;28;20109;-68
2022/07/19 02:52:33;;;;;;;6.30;2.15;;;;;;;21.13;57.72;100507.72;5085054;28;20196;-67
2022/07/19 02:54:59;;;;;;;6.38;2.33;;;;;;;21.19;57.04;100505.00;5084836;28;20060;-68
2022/07/19 02:57:24;;;;;;;6.38;2.30;;;;;;;21.20;56.97;100506.66;5084884;28;20074;-68
2022/07/19 02:59:50;;;;;;;6.18;2.40;;;;;;;21.20;57.04;100509.34;5085049;28;20032;-67
2022/07/19 03:02:15;;;;;;;5.50;2.25;;;;;;;21.23;56.46;100508.13;5084861;28;20061;-67
2022/07/19 03:04:41;;;;;;;8.88;2.20;;;;;;;21.24;56.48;100510.59;5084724;28;20056;-67
2022/07/19 03:07:06;;;;;;;9.50;2.35;;;;;;;21.29;56.18;100501.88;5084755;28;20032;-67
2022/07/19 03:09:31;;;;;;;4.13;1.90;;;;;;;21.28;55.86;100516.41;5084415;28;20031;-67
2022/07/19 03:11:57;;;;;;;7.43;2.30;;;;;;;21.24;55.77;100509.78;5084596;28;20028;-67
2022/07/19 03:14:22;;;;;;;7.20;2.00;;;;;;;21.10;56.38;100508.97;5084662;28;20035;-67
2022/07/19 03:16:48;;;;;;;5.82;1.90;;;;;;;20.97;56.91;100512.53;5066654;28;20032;-67
2022/07/19 03:19:13;;;;;;;4.65;1.95;;;;;;;20.84;56.98;100501.78;5082560;28;20306;-67
2022/07/19 03:21:39;;;;;;;3.78;2.15;;;;;;;20.76;57.64;100515.44;5082561;28;20040;-67
2022/07/19 03:24:04;;;;;;;3.72;2.00;;;;;;;20.53;59.24;100512.38;5081903;28;20034;-67
2022/07/19 03:26:30;;;;;;;10.18;2.63;;;;;;;20.50;59.58;100516.31;5081900;28;20092;-67
2022/07/19 03:28:55;;;;;;;6.05;2.65;;;;;;;20.63;59.13;100529.75;5084261;28;20032;-67
2022/07/19 03:31:21;;;;;;;7.55;2.30;;;;;;;20.69;59.06;100510.06;5082489;28;20036;-67
2022/07/19 03:33:46;;;;;;;8.55;2.95;;;;;;;20.75;58.37;100519.16;5082923;28;20024;-67
2022/07/19 03:36:11;;;;;;;7.50;2.00;;;;;;;20.73;58.49;100515.88;5082592;28;20383;-67
2022/07/19 03:38:37;;;;;;;3.92;2.30;;;;;;;20.75;58.86;100507.56;5082806;28;20302;-68
2022/07/19 03:41:02;;;;;;;8.18;2.00;;;;;;;20.77;59.19;100509.03;5082478;28;20318;-68
2022/07/19 03:43:28;;;;;;;13.30;1.98;;;;;;;20.88;58.52;100513.78;5082267;28;20032;-67
2022/07/19 03:45:53;;;;;;;5.13;2.40;;;;;;;20.91;58.58;100520.63;5082728;28;20085;-67
2022/07/19 03:48:21;;;;;;;8.55;2.22;;;;;;;20.99;57.90;100520.41;5082480;28;20033;-68
2022/07/19 03:50:46;;;;;;;9.75;2.70;;;;;;;21.03;58.47;100522.47;5088693;28;20067;-67
2022/07/19 03:53:12;;;;;;;15.63;2.35;;;;;;;21.09;58.29;100523.47;5102956;28;20232;-67
2022/07/19 03:55:38;;;;;;;10.80;2.20;;;;;;;21.01;58.28;100521.84;5088478;28;20168;-67
2022/07/19 03:58:04;;;;;;;10.90;2.70;;;;;;;21.10;58.17;100513.53;5083459;28;20069;-67
2022/07/19 04:00:29;;;;;;;10.00;3.15;;;;;;;21.10;58.31;100525.13;5092440;28;20040;-68
2022/07/19 04:02:55;;;;;;;7.72;2.13;;;;;;;20.89;58.98;100528.09;5082688;28;20048;-68
2022/07/19 04:05:20;;;;;;;6.10;2.13;;;;;;;20.84;58.96;100525.19;5082897;28;20039;-67
2022/07/19 04:07:46;;;;;;;11.75;1.98;;;;;;;20.98;58.68;100527.66;5081752;28;20029;-67
2022/07/19 04:10:11;;;;;;;11.18;2.40;;;;;;;21.01;58.39;100527.22;5082546;28;20032;-67
2022/07/19 04:12:36;;;;;;;12.50;7.47;;;;;;;21.19;57.97;100534.63;5081785;28;20028;-68
2022/07/19 04:15:02;;;;;;;9.63;3.03;;;;;;;21.17;57.79;100519.72;5080701;28;20028;-67
2022/07/19 04:17:28;;;;;;;10.18;2.90;;;;;;;21.19;59.16;100531.94;5082140;28;20032;-68
2022/07/19 04:19:53;;;;;;;11.88;2.70;;;;;;;21.30;58.83;100531.31;5081342;28;20389;-67
2022/07/19 04:22:19;;;;;;;9.95;2.83;;;;;;;21.26;59.38;100527.38;5082011;28;20021;-67
2022/07/19 04:24:44;;;;;;;16.70;3.33;;;;;;;21.39;59.26;100529.19;5083253;28;20089;-67
2022/07/19 04:27:10;;;;;;;8.65;2.90;;;;;;;21.37;59.42;100530.44;5063263;28;20055;-67
2022/07/19 04:29:35;;;;;;;18.60;5.57;;;;;;;21.29;59.04;100542.28;5082101;28;20036;-67
2022/07/19 04:32:00;;;;;;;16.98;3.33;;;;;;;21.58;59.22;100530.97;5081614;28;20047;-67
2022/07/19 04:34:26;;;;;;;8.73;3.88;;;;;;;21.85;58.24;100534.38;5081619;28;20053;-68
2022/07/19 04:36:51;;;;;;;14.98;3.95;;;;;;;22.00;58.01;100534.09;5082588;28;20040;-68
2022/07/19 04:39:17;;;;;;;8.95;2.80;;;;;;;22.27;57.71;100540.16;5081446;28;20317;-67
2022/07/19 04:41:42;;;;;;;6.95;3.05;;;;;;;22.74;55.94;100543.28;5081389;28;20032;-68
2022/07/19 04:44:08;;;;;;;22.65;3.70;;;;;;;22.64;56.35;100543.78;5082929;28;20047;-68
2022/07/19 04:46:33;;;;;;;11.32;3.30;;;;;;;22.68;56.37;100546.88;5080351;28;20218;-67
2022/07/19 04:48:59;;;;;;;18.67;3.45;;;;;;;22.79;55.47;100538.03;5081735;28;20039;-68
2022/07/19 04:51:24;;;;;;;14.95;3.47;;;;;;;22.96;55.06;100541.06;5084996;28;20040;-68
2022/07/19 04:53:50;;;;;;;10.93;3.00;;;;;;;23.35;52.98;100535.19;5101419;28;20044;-68
2022/07/19 04:56:15;;;;;;;9.60;3.20;;;;;;;23.15;52.98;100540.84;5096174;28;20024;-68
2022/07/19 04:58:41;;;;;;;9.80;3.15;;;;;;;23.26;52.53;100539.25;5083188;28;20263;-68
2022/07/19 05:01:06;;;;;;;8.20;2.40;;;;;;;23.49;51.88;100530.44;5081587;28;20028;-67
2022/07/19 05:03:31;;;;;;;11.25;2.90;;;;;;;23.63;51.60;100534.66;5080731;28;20029;-67
2022/07/19 05:05:57;;;;;;;9.32;2.78;;;;;;;23.83;51.17;100527.09;5082052;28;20222;-68
2022/07/19 05:08:22;;;;;;;8.95;2.63;;;;;;;24.16;50.50;100537.47;5064434;28;20017;-67
2022/07/19 05:10:48;;;;;;;13.25;3.60;;;;;;;23.95;50.96;100532.56;5081798;28;20020;-67
2022/07/19 05:13:13;;;;;;;5.75;2.75;;;;;;;24.19;50.80;100539.69;5062603;28;20093;-68
2022/07/19 05:15:39;;;;;;;9.77;3.08;;;;;;;24.43;50.01;100531.66;5080612;28;20101;-67
2022/07/19 05:18:04;;;;;;;9.55;3.17;;;;;;;24.53;49.88;100529.19;5081206;28;20036;-68
2022/07/19 05:20:30;;;;;;;13.27;3.60;;;;;;;24.55;50.02;100540.59;5080014;28;20032;-68
2022/07/19 05:22:55;;;;;;;13.05;3.05;;;;;;;24.75;49.60;100538.38;5081084;28;20040;-68
2022/07/19 05:25:21;;;;;;;7.53;3.03;;;;;;;24.87;49.23;100532.13;5080229;28;20348;-68
2022/07/19 05:27:47;;;;;;;13.07;3.50;;;;;;;24.70;49.96;100532.84;5080132;28;20036;-67
2022/07/19 05:30:12;;;;;;;5.15;3.05;;;;;;;24.89;50.19;100535.44;5081488;28;20024;-68
2022/07/19 05:32:38;;;;;;;10.68;2.92;;;;;;;25.17;48.95;100537.44;5080753;28;20059;-68
2022/07/19 05:35:04;;;;;;;26.13;3.30;;;;;;;25.30;47.75;100526.34;5080668;28;20321;-68
2022/07/19 05:37:29;;;;;;;7.63;3.15;;;;;;;25.28;48.58;100536.59;5081664;28;20040;-68
2022/07/19 05:39:55;;;;;;;7.78;3.03;;;;;;;25.20;48.81;100534.25;5080553;28;21099;-68
2022/07/19 05:42:20;;;;;;;9.23;3.13;;;;;;;25.30;47.20;100540.72;5080245;28;20036;-68
2022/07/19 05:44:46;;;;;;;8.05;2.72;;;;;;;25.39;47.38;100535.75;5080792;28;20032;-68
2022/07/19 05:47:11;;;;;;;8.30;2.55;;;;;;;25.39;48.05;100535.75;5080421;28;20078;-68
2022/07/19 05:49:37;;;;;;;4.88;2.47;;;;;;;25.90;47.19;100534.03;5079444;28;20067;-68
2022/07/19 05:52:02;;;;;;;9.77;3.13;;;;;;;25.95;45.58;100534.97;5081812;28;20035;-68
2022/07/19 05:54:28;;;;;;;7.68;3.20;;;;;;;25.89;46.39;100532.41;5079776;28;20036;-68
2022/07/19 05:56:54;;;;;;;8.10;2.83;;;;;;;25.85;46.64;100531.25;5061437;28;20028;-67
2022/07/19 05:59:21;;;;;;;10.05;2.45;;;;;;;26.12;45.46;100537.72;5083250;28;20035;-68
2022/07/19 06:01:48;;;;;;;9.82;2.45;;;;;;;26.12;44.43;100535.03;5084250;28;20043;-68
2022/07/19 06:04:14;;;;;;;9.43;2.22;;;;;;;25.98;44.38;100537.19;5084823;28;20024;-68
2022/07/19 06:06:39;;;;;;;12.43;2.53;;;;;;;25.99;45.04;100538.00;5086065;28;20250;-68
2022/07/19 06:09:05;;;;;;;10.25;2.28;;;;;;;26.30;44.01;100537.50;5085615;28;20036;-68
2022/07/19 06:11:30;;;;;;;7.45;2.53;;;;;;;26.52;44.20;100534.06;5083166;28;20029;-68
2022/07/19 06:13:56;;;;;;;7.05;2.58;;;;;;;26.57;43.06;100537.69;5085608;28;20032;-68
2022/07/19 06:16:22;;;;;;;4.93;2.08;;;;;;;26.69;43.31;100537.59;5083571;28;20044;-68
2022/07/19 06:18:48;;;;;;;2.42;1.50;;;;;;;27.26;42.18;100530.03;5084727;28;20036;-68
2022/07/19 06:21:16;;;;;;;5.10;1.48;;;;;;;27.57;40.59;100533.09;5085279;28;20058;-68
2022/07/19 06:23:42;;;;;;;7.57;2.38;;;;;;;27.60;40.34;100535.31;5084044;28;20028;-68
2022/07/19 06:26:10;;;;;;;5.53;1.63;;;;;;;27.62;39.27;100538.63;5083833;28;20341;-68
2022/07/19 06:28:36;;;;;;;5.13;1.30;;;;;;;27.40;40.02;100533.19;5083920;28;20035;-68
2022/07/19 06:31:02;;;;;;;7.75;1.88;;;;;;;27.74;39.11;100528.44;5083337;28;20399;-68
2022/07/19 06:33:27;;;;;;;7.90;1.27;;;;;;;27.89;38.00;100527.75;5085530;28;20024;-68
2022/07/19 06:35:53;;;;;;;2.90;1.60;;;;;;;27.80;38.07;100530.13;5085047;28;20083;-68
2022/07/19 06:38:18;;;;;;;5.45;1.42;;;;;;;28.13;37.72;100529.09;5103689;28;20031;-68
2022/07/19 06:40:44;;;;;;;2.78;1.20;;;;;;;28.13;36.45;100522.84;5107308;28;20032;-68
2022/07/19 06:43:10;;;;;;;2.00;1.50;;;;;;;28.38;36.64;100531.25;5104228;28;20066;-68
2022/07/19 06:45:36;;;;;;;4.50;1.30;;;;;;;28.31;36.35;100522.47;5105947;28;20221;-68
2022/07/19 06:48:01;;;;;;;4.75;1.83;;;;;;;28.66;35.16;100524.63;5104846;28;20048;-68
2022/07/19 06:50:27;;;;;;;7.82;1.40;;;;;;;28.75;35.76;100522.25;5107232;28;20032;-68
2022/07/19 06:52:52;;;;;;;2.45;1.25;;;;;;;28.88;36.01;100508.19;5103269;28;20024;-68
2022/07/19 06:55:18;;;;;;;3.22;1.20;;;;;;;28.91;36.13;100516.66;5106733;28;20059;-68
2022/07/19 06:57:43;;;;;;;6.20;2.42;;;;;;;29.06;35.90;100505.00;5110782;28;20027;-68
2022/07/19 07:00:10;;;;;;;2.00;1.27;;;;;;;29.16;36.16;100513.25;5119005;28;20035;-68
2022/07/19 07:02:36;;;;;;;3.42;1.70;;;;;;;29.32;35.70;100505.94;5104545;28;20039;-68
2022/07/19 07:05:02;;;;;;;6.15;1.50;;;;;;;29.65;34.77;100506.63;5103666;28;20346;-68
2022/07/19 07:07:28;;;;;;;4.93;1.60;;;;;;;29.36;35.19;100507.06;5107507;28;20066;-68
2022/07/19 07:09:53;;;;;;;3.75;1.20;;;;;;;29.34;34.68;100502.97;5086131;28;20016;-68
2022/07/19 07:12:18;;;;;;;2.10;1.30;;;;;;;29.47;34.52;100497.84;5103867;28;20073;-68
2022/07/19 07:14:44;;;;;;;5.28;1.67;;;;;;;29.43;34.40;100468.63;5087849;28;20011;-68
2022/07/19 07:17:09;;;;;;;4.15;1.55;;;;;;;29.74;34.17;100500.38;5103856;28;20082;-68
2022/07/19 07:19:35;;;;;;;5.60;1.45;;;;;;;30.19;33.53;100490.63;5103140;28;20437;-68
2022/07/19 07:22:01;;;;;;;3.45;1.45;;;;;;;30.35;33.09;100502.38;5109100;28;20077;-68
2022/07/19 07:24:27;;;;;;;4.47;1.70;;;;;;;30.03;33.48;100506.16;5101636;28;20066;-68
2022/07/19 07:26:53;;;;;;;3.97;1.35;;;;;;;29.81;33.60;100503.66;5105851;28;20038;-68
2022/07/19 07:29:18;;;;;;;5.28;1.55;;;;;;;29.95;33.90;100505.84;5106090;28;20036;-68
2022/07/19 07:31:44;;;;;;;6.53;2.00;;;;;;;30.25;32.76;100502.38;5102507;28;20035;-68
2022/07/19 07:34:09;;;;;;;3.17;1.20;;;;;;;30.17;32.81;100490.03;5103543;28;20038;-68
2022/07/19 07:36:35;;;;;;;3.97;1.50;;;;;;;30.24;32.23;100496.09;5104227;28;20100;-68
2022/07/19 07:39:01;;;;;;;4.00;1.17;;;;;;;30.47;31.62;100491.97;5105232;28;20030;-69
2022/07/19 07:41:26;;;;;;;4.00;1.50;;;;;;;30.37;32.04;100495.53;5106499;28;20078;-68
2022/07/19 07:43:52;;;;;;;4.60;1.52;;;;;;;30.77;32.56;100494.66;5102050;28;20028;-68
2022/07/19 07:46:17;;;;;;;6.32;1.55;;;;;;;31.02;31.02;100492.94;5106237;28;20248;-68
2022/07/19 07:48:43;;;;;;;3.13;1.38;;;;;;;30.91;31.65;100483.97;5104530;28;20353;-68
2022/07/19 07:51:08;;;;;;;5.18;1.52;;;;;;;31.05;30.02;100489.66;5103318;28;20034;-68
2022/07/19 07:53:34;;;;;;;5.90;1.88;;;;;;;30.85;30.55;100487.81;5103939;28;20031;-68
2022/07/19 07:55:59;;;;;;;8.43;1.42;;;;;;;31.05;29.04;100473.25;5103890;28;20044;-68
2022/07/19 07:58:25;;;;;;;4.68;1.25;;;;;;;31.56;27.96;100479.31;5103120;28;20392;-68
2022/07/19 08:00:50;;;;;;;6.07;1.42;;;;;;;31.87;28.78;100447.09;5105717;28;20032;-68
2022/07/19 08:03:17;;;;;;;4.93;1.30;;;;;;;32.44;27.60;100472.13;5107183;28;20029;-69
2022/07/19 08:05:47;;;;;;;2.33;1.60;;;;;;;32.50;26.93;100469.03;5102431;28;20140;-68
2022/07/19 08:08:13;;;;;;;5.25;1.60;;;;;;;32.57;25.95;100465.97;5105054;28;20310;-68
2022/07/19 08:10:38;;;;;;;5.82;1.60;;;;;;;32.38;25.70;100455.72;5103128;28;20043;-68
2022/07/19 08:13:04;;;;;;;6.18;1.25;;;;;;;31.86;23.52;100461.91;5102141;28;20043;-68
2022/07/19 08:15:29;;;;;;;3.08;1.27;;;;;;;31.80;24.40;100459.47;5085899;28;20317;-69
2022/07/19 08:17:55;;;;;;;8.07;1.60;;;;;;;31.79;24.44;100452.38;5101411;28;20302;-68
2022/07/19 08:20:21;;;;;;;4.15;1.13;;;;;;;32.03;23.72;100447.78;5100707;28;20432;-68
2022/07/19 08:22:46;;;;;;;3.42;1.15;;;;;;;32.37;24.26;100450.53;5103833;28;20660;-68
2022/07/19 08:25:15;;;;;;;9.90;1.65;;;;;;;32.46;24.33;100450.72;5102878;28;20367;-68
2022/07/19 08:27:40;;;;;;;2.92;1.25;;;;;;;32.50;23.52;100447.13;5086826;28;20036;-68
2022/07/19 08:30:06;;;;;;;3.58;1.40;;;;;;;32.48;23.27;100440.28;5101240;28;20475;-68
2022/07/19 08:32:32;;;;;;;3.65;0.93;;;;;;;32.27;24.27;100450.63;5103286;28;20031;-68
2022/07/19 08:34:57;;;;;;;5.25;1.40;;;;;;;32.56;22.61;100443.22;5100273;28;20190;-68
2022/07/19 08:37:22;;;;;;;3.17;0.90;;;;;;;32.71;21.18;100444.97;5102682;28;20031;-68
2022/07/19 08:39:48;;;;;;;8.40;1.27;;;;;;;32.27;22.82;100445.16;5106155;28;20028;-68
2022/07/19 08:42:18;;;;;;;2.55;1.10;;;;;;;32.20;22.65;100445.44;5102642;28;20981;-68
2022/07/19 08:44:47;;;;;;;3.28;1.27;;;;;;;31.90;23.28;100441.03;5102228;28;20205;-68
2022/07/19 08:47:12;;;;;;;4.90;1.05;;;;;;;31.91;22.96;100431.72;5106390;28;20043;-68
2022/07/19 08:49:41;;;;;;;4.43;1.25;;;;;;;32.04;22.40;100435.72;5102185;28;20095;-68
2022/07/19 08:52:07;;;;;;;4.03;1.10;;;;;;;32.34;21.95;100434.69;5104809;28;20027;-68
2022/07/19 08:54:33;;;;;;;4.63;0.95;;;;;;;31.95;22.65;100431.97;5105313;28;20059;-68
2022/07/19 08:59:43;;;;;;;;;;;;;;;31.55;23.44;100424.88;5100938;28;20110;-68
2022/07/19 09:02:08;;;;;;;;;;;;;;;32.05;22.16;100420.91;5104089;28;19932;-68
2022/07/19 09:04:34;;;;;;;;;;;;;;;32.35;21.76;100422.59;5104144;28;19926;-68
2022/07/19 09:06:59;;;;;;;;;;;;;;;32.35;22.29;100415.19;5105279;28;19916;-68
2022/07/19 09:09:26;;;;;;;;;;;;;;;32.11;23.18;100419.78;5103650;28;19912;-68
2022/07/19 09:11:52;;;;;;;;;;;;;;;32.40;21.59;100410.78;5104784;28;19980;-68
2022/07/19 09:14:39;;;;;;;;;;;;;;;32.41;22.12;100401.44;5105935;28;19916;-68
2022/07/19 09:17:06;;;;;;;;;;;;;;;32.77;21.98;100410.91;5100691;28;20165;-69
2022/07/19 09:19:35;;;;;;;;;;;;;;;32.86;21.21;100402.84;5102840;28;19933;-68
2022/07/19 09:22:03;;;;;;;;;;;;;;;32.61;21.20;100404.75;5103897;28;19916;-68
2022/07/19 09:24:29;;;;;;;;;;;;;;;32.40;21.77;100397.88;5101262;28;20216;-68
2022/07/19 09:26:56;;;;;;;;;;;;;;;32.57;21.62;100402.91;5101930;28;19916;-68
2022/07/19 09:29:22;;;;;;;;;;;;;;;32.19;23.31;100391.75;5100993;28;19982;-68
2022/07/19 09:32:22;;;;;;;;;;;;;;;30.97;24.12;100405.44;5105170;28;19923;-68
2022/07/19 09:34:48;;;;;;;;;;;;;;;30.96;24.95;100406.53;5005242;28;19917;-68
2022/07/19 09:37:15;;;;;;;;;;;;;;;30.34;25.21;100405.09;5066984;28;20097;-67
2022/07/19 09:39:46;;;;;;;;;;;;;;;30.16;25.19;100395.53;5105362;28;19952;-68
2022/07/19 09:42:15;;;;;;;;;;;;;;;30.55;25.33;100398.47;5105280;28;19951;-68
2022/07/19 09:44:41;;;;;;;;;;;;;;;30.73;23.92;100395.16;5099071;28;19920;-68
2022/07/19 09:47:06;;;;;;;;;;;;;;;30.54;25.58;100407.78;5104213;28;19938;-68
2022/07/19 09:49:32;;;;;;;;;;;;;;;30.44;24.54;100405.06;5105696;28;19983;-69
2022/07/19 09:51:58;;;;;;;;;;;;;;;30.43;25.50;100397.97;5100085;28;20312;-68
2022/07/19 09:54:24;;;;;;;;;;;;;;;30.61;25.54;100408.34;5103108;28;20110;-68
2022/07/19 09:56:50;;;;;;;;;;;;;;;30.57;26.41;100406.41;5101642;28;19928;-68
2022/07/19 09:59:16;;;;;;;;;;;;;;;30.73;24.49;100399.81;5084818;28;19911;-68
2022/07/19 10:01:42;;;;;;;;;;;;;;;30.75;25.41;100401.16;5101981;28;19947;-68
2022/07/19 10:04:09;;;;;;;;;;;;;;;30.87;25.48;100391.81;5102113;28;20094;-68
2022/07/19 10:06:35;;;;;;;;;;;;;;;30.34;26.66;100400.44;5101851;28;19916;-68
2022/07/19 10:09:04;;;;;;;;;;;;;;;30.07;25.86;100392.56;5101771;28;19949;-68
2022/07/19 10:11:30;;;;;;;;;;;;;;;30.05;26.05;100392.00;5100422;28;19963;-68
2022/07/19 10:13:56;;;;;;;;;;;;;;;30.03;25.33;100391.47;5103890;28;19912;-68
2022/07/19 10:16:32;;;;;;;;;;;;;;;30.21;26.73;100392.00;5101387;28;19923;-68
2022/07/19 10:19:17;;;;;;;;;;;;;;;30.34;25.69;100380.50;5101560;28;19912;-68
2022/07/19 10:21:43;;;;;;;;;;;;;;;30.52;25.42;100384.56;5103620;28;19919;-68
2022/07/19 10:24:08;;;;;;;;;;;;;;;30.66;25.24;100378.25;5100818;28;20262;-68
2022/07/19 10:26:34;;;;;;;;;;;;;;;30.72;24.66;100371.66;5111371;28;19982;-68
2022/07/19 10:29:10;;;;;;;;;;;;;;;30.65;25.81;100371.16;5115180;28;19978;-68
2022/07/19 10:31:35;;;;;;;;;;;;;;;30.91;25.11;100368.28;5115666;28;20219;-68
2022/07/19 10:34:03;;;;;;;;;;;;;;;30.98;24.81;100358.69;5114081;28;20131;-68
2022/07/19 10:36:36;;;;;;;;;;;;;;;30.73;24.71;100359.63;5116992;28;19927;-68
2022/07/19 10:39:20;;;;;;;;;;;;;;;30.50;25.00;100355.59;5116730;28;20150;-68
2022/07/19 10:42:05;;;;;;;;;;;;;;;30.13;25.10;100350.47;5115757;28;19943;-68
2022/07/19 10:44:30;;;;;;;;;;;;;;;30.06;25.81;100358.16;5116296;28;19911;-68
2022/07/19 10:46:55;;;;;;;;;;;;;;;30.11;24.98;100357.31;5117869;28;20212;-69
2022/07/19 10:49:39;;;;;;;;;;;;;;;30.05;24.92;100347.50;5121844;28;19919;-68
2022/07/19 10:52:23;;;;;;;;;;;;;;;29.81;26.35;100353.50;5118640;28;20122;-68
2022/07/19 10:55:08;;;;;;;;;;;;;;;29.95;25.41;100345.56;5117960;28;19912;-68
2022/07/19 10:57:37;;;;;;;;;;;;;;;29.92;26.18;100345.31;5119581;28;19916;-68
2022/07/19 11:00:15;;;;;;;;;;;;;;;30.05;25.92;100342.84;5118940;28;19939;-68
2022/07/19 11:02:41;;;;;;;;;;;;;;;30.25;25.17;100327.53;5115750;28;19921;-68
2022/07/19 11:05:06;;;;;;;;;;;;;;;30.47;24.79;100336.19;5100929;28;19939;-68
2022/07/19 11:07:31;;;;;;;;;;;;;;;30.41;24.01;100324.47;5117232;28;19916;-68
2022/07/19 11:09:58;;;;;;;;;;;;;;;30.16;23.88;100325.34;5121648;28;19915;-68
2022/07/19 11:12:25;;;;;;;;;;;;;;;30.38;23.37;100321.47;5119934;28;19916;-68
2022/07/19 11:14:50;;;;;;;;;;;;;;;30.34;24.16;100312.22;5119518;28;19962;-68
2022/07/19 11:17:15;;;;;;;;;;;;;;;30.24;24.26;100314.97;5117420;28;19923;-69
2022/07/19 11:20:00;;;;;;;;;;;;;;;30.37;24.96;100307.00;5110664;28;20079;-68
2022/07/19 11:22:26;;;;;;;;;;;;;;;30.52;26.78;100305.31;5085015;28;19924;-68
2022/07/19 11:24:51;;;;;;;;;;;;;;;30.14;25.10;100315.78;5103625;28;19918;-68
2022/07/19 11:27:16;;;;;;;;;;;;;;;30.11;25.03;100300.78;5105066;28;19919;-68
2022/07/19 11:29:58;;;;;;;;;;;;;;;30.10;24.75;100315.53;5105709;28;20296;-68
2022/07/19 11:32:23;;;;;;;;;;;;;;;29.82;24.65;100300.53;5101888;28;20293;-68
2022/07/19 11:34:59;;;;;;;;;;;;;;;29.93;25.00;100303.25;5103585;28;19947;-68
2022/07/19 11:37:26;;;;;;;;;;;;;;;30.30;24.82;100301.03;5087764;28;19979;-68
2022/07/19 11:39:51;;;;;;;;;;;;;;;30.39;23.60;100296.63;5089689;28;20129;-69